Time;durP1;ratioP1;P1;durP2;ratioP2;P2;SDS_P1;SDS_P2;PMS_P1;PMS_P2;Temp;Humidity;BMP_temperature;BMP_pressure;BME280_temperature;BME280_humidity;BME280_pressure;Samples;Min_cycle;Max_cycle;Signal;HPM_P1;HPM_P2
2023/05/09 00:01:54;;;;;;;26.50;13.00;;;15.20;99.90;;;;;;5056554;28;20673;-46
2023/05/09 00:04:19;;;;;;;28.90;12.90;;;15.20;99.90;;;;;;5056342;28;20677;-47
2023/05/09 00:06:45;;;;;;;32.30;13.02;;;15.20;99.90;;;;;;5056261;28;20128;-46
2023/05/09 00:09:11;;;;;;;29.58;13.32;;;15.20;99.90;;;;;;5055246;28;20144;-46
2023/05/09 00:11:37;;;;;;;26.77;12.27;;;15.20;99.90;;;;;;5054945;28;20071;-47
2023/05/09 00:14:03;;;;;;;28.67;11.88;;;15.20;99.90;;;;;;5056469;28;20049;-46
2023/05/09 00:16:31;;;;;;;26.63;11.80;;;15.20;99.90;;;;;;5056279;28;20047;-46
2023/05/09 00:18:58;;;;;;;27.58;13.40;;;15.20;99.90;;;;;;5056078;28;20048;-47
2023/05/09 00:21:23;;;;;;;26.75;11.60;;;15.20;99.90;;;;;;5056283;28;20483;-47
2023/05/09 00:23:49;;;;;;;29.13;12.13;;;15.20;99.90;;;;;;5056142;28;20082;-46
2023/05/09 00:26:15;;;;;;;26.73;12.00;;;15.20;99.90;;;;;;5056118;28;20381;-46
2023/05/09 00:28:41;;;;;;;25.60;12.00;;;15.20;99.90;;;;;;5056077;28;20060;-46
2023/05/09 00:31:07;;;;;;;25.80;11.43;;;15.20;99.90;;;;;;5055928;28;20037;-46
2023/05/09 00:33:32;;;;;;;28.85;11.57;;;15.10;99.90;;;;;;5055765;28;20467;-46
2023/05/09 00:35:58;;;;;;;25.55;10.55;;;15.10;99.90;;;;;;5055168;28;20152;-47
2023/05/09 00:38:24;;;;;;;29.10;12.17;;;15.10;99.90;;;;;;5055913;28;20127;-47
2023/05/09 00:40:49;;;;;;;24.80;10.63;;;15.10;99.90;;;;;;5056149;28;20318;-46
2023/05/09 00:43:15;;;;;;;26.83;10.73;;;15.10;99.90;;;;;;5055705;28;20049;-46
2023/05/09 00:45:42;;;;;;;28.98;11.68;;;15.10;99.90;;;;;;5055717;28;20290;-47
2023/05/09 00:48:08;;;;;;;25.88;11.38;;;15.00;99.90;;;;;;5055533;28;20134;-47
2023/05/09 00:50:34;;;;;;;27.90;10.68;;;15.00;99.90;;;;;;5055312;28;20087;-48
2023/05/09 00:53:00;;;;;;;;;;;15.00;99.90;;;;;;5056412;28;20059;-47
2023/05/09 00:55:26;;;;;;;24.33;10.75;;;15.00;99.90;;;;;;5055482;28;19920;-46
2023/05/09 00:57:52;;;;;;;23.70;10.70;;;14.90;99.90;;;;;;5055819;28;20052;-46
2023/05/09 01:00:17;;;;;;;26.33;11.73;;;14.90;99.90;;;;;;5055415;28;20056;-47
2023/05/09 01:02:47;;;;;;;26.88;11.10;;;14.80;99.90;;;;;;5055457;28;20119;-47
2023/05/09 01:05:13;;;;;;;24.90;11.05;;;14.80;99.90;;;;;;5055416;28;20047;-46
2023/05/09 01:08:03;;;;;;;25.52;10.93;;;14.80;99.90;;;;;;5055575;28;20096;-46
2023/05/09 01:10:32;;;;;;;27.98;11.30;;;14.80;99.90;;;;;;5055293;28;20535;-47
2023/05/09 01:13:13;;;;;;;28.40;12.60;;;14.90;99.90;;;;;;5055190;28;20162;-46
2023/05/09 01:15:50;;;;;;;29.98;11.40;;;14.90;99.90;;;;;;5055272;28;20138;-46
2023/05/09 01:18:30;;;;;;;27.50;12.20;;;14.80;99.90;;;;;;5055539;28;20081;-46
2023/05/09 01:21:02;;;;;;;27.95;11.35;;;14.80;99.90;;;;;;5055137;28;20037;-47
2023/05/09 01:23:43;;;;;;;27.75;11.40;;;14.80;99.90;;;;;;5054959;28;20420;-48
2023/05/09 01:26:21;;;;;;;22.33;11.13;;;14.80;99.90;;;;;;5054279;28;20472;-46
2023/05/09 01:29:00;;;;;;;26.40;10.77;;;14.70;99.90;;;;;;5054939;28;20175;-46
2023/05/09 01:31:27;;;;;;;27.00;11.05;;;14.70;99.90;;;;;;5055156;28;20049;-46
2023/05/09 01:33:56;;;;;;;26.20;11.25;;;14.70;99.90;;;;;;5054765;28;20094;-46
2023/05/09 01:36:28;;;;;;;26.33;11.25;;;14.70;99.90;;;;;;5054629;28;20107;-46
2023/05/09 01:38:55;;;;;;;30.38;11.48;;;14.70;99.90;;;;;;5054717;28;20041;-47
2023/05/09 01:41:23;;;;;;;29.67;12.30;;;14.80;99.90;;;;;;5054724;28;20048;-46
2023/05/09 01:43:50;;;;;;;26.50;11.18;;;14.70;99.90;;;;;;5054416;28;20400;-46
2023/05/09 01:46:18;;;;;;;25.10;10.88;;;14.70;99.90;;;;;;5054460;28;20045;-47
2023/05/09 01:48:44;;;;;;;27.52;11.73;;;14.70;99.90;;;;;;5054192;28;20055;-46
2023/05/09 01:51:11;;;;;;;24.88;11.43;;;14.70;99.90;;;;;;5054519;28;20051;-48
2023/05/09 01:53:38;;;;;;;27.67;10.35;;;14.70;99.90;;;;;;5054578;28;20049;-46
2023/05/09 01:56:06;;;;;;;28.83;11.60;;;14.70;99.90;;;;;;5054337;28;20103;-47
2023/05/09 01:58:33;;;;;;;26.90;10.77;;;14.70;99.90;;;;;;5054522;28;20049;-47
2023/05/09 02:01:00;;;;;;;29.80;11.98;;;14.70;99.90;;;;;;5054270;28;20123;-48
2023/05/09 02:03:26;;;;;;;28.13;11.15;;;14.70;99.90;;;;;;5054062;28;20511;-47
2023/05/09 02:05:54;;;;;;;28.40;12.65;;;14.70;99.90;;;;;;5054768;28;20040;-46
2023/05/09 02:08:20;;;;;;;28.15;12.30;;;14.70;99.90;;;;;;5054236;28;20118;-46
2023/05/09 02:10:49;;;;;;;25.60;10.95;;;14.60;99.90;;;;;;5054264;28;20103;-46
2023/05/09 02:13:15;;;;;;;25.88;10.65;;;14.60;99.90;;;;;;5054088;28;20092;-47
2023/05/09 02:15:41;;;;;;;30.00;13.13;;;14.70;99.90;;;;;;5053967;28;20096;-46
2023/05/09 02:18:07;;;;;;;29.83;13.07;;;14.60;99.90;;;;;;5053766;28;20448;-47
2023/05/09 02:20:35;;;;;;;28.08;13.15;;;14.60;99.90;;;;;;5054037;28;20080;-47
2023/05/09 02:23:01;;;;;;;32.13;14.45;;;14.60;99.90;;;;;;5053859;28;20091;-46
2023/05/09 02:25:27;;;;;;;31.08;14.02;;;14.60;99.90;;;;;;5053827;28;20051;-46
2023/05/09 02:27:56;;;;;;;32.42;13.43;;;14.60;99.90;;;;;;5052699;28;20049;-46
2023/05/09 02:30:24;;;;;;;28.55;13.77;;;14.60;99.90;;;;;;5053562;28;20124;-46
2023/05/09 02:32:58;;;;;;;30.88;12.65;;;14.60;99.90;;;;;;5053867;28;20049;-46
2023/05/09 02:35:26;;;;;;;28.90;12.93;;;14.60;99.90;;;;;;5053801;28;20045;-47
2023/05/09 02:37:52;;;;;;;31.02;12.88;;;14.70;99.90;;;;;;5053694;28;20056;-46
2023/05/09 02:40:19;;;;;;;31.90;13.48;;;14.70;99.90;;;;;;5053750;28;20068;-46
2023/05/09 02:42:45;;;;;;;35.17;14.25;;;14.70;99.90;;;;;;5053425;28;20045;-47
2023/05/09 02:45:11;;;;;;;29.52;13.30;;;14.70;99.90;;;;;;5053448;28;20048;-46
2023/05/09 02:47:37;;;;;;;29.85;11.93;;;14.70;99.90;;;;;;5052461;28;20044;-47
2023/05/09 02:50:04;;;;;;;31.02;13.50;;;14.80;99.90;;;;;;5053370;28;20369;-46
2023/05/09 02:52:30;;;;;;;31.90;13.35;;;14.80;99.90;;;;;;5053697;28;20170;-46
2023/05/09 02:54:56;;;;;;;29.42;12.75;;;14.80;99.90;;;;;;5053643;28;20088;-46
2023/05/09 02:57:21;;;;;;;29.67;13.43;;;14.80;99.90;;;;;;5053283;28;20142;-46
2023/05/09 02:59:47;;;;;;;29.20;12.85;;;14.90;99.90;;;;;;5056627;28;20047;-46
2023/05/09 03:02:13;;;;;;;27.43;12.67;;;14.90;99.90;;;;;;5060173;28;20041;-46
2023/05/09 03:04:38;;;;;;;28.77;11.83;;;14.90;99.90;;;;;;5060118;28;20318;-46
2023/05/09 03:07:04;;;;;;;27.70;12.68;;;14.90;99.90;;;;;;5060070;28;20052;-46
2023/05/09 03:09:30;;;;;;;24.58;11.50;;;14.90;99.90;;;;;;5058863;28;20080;-46
2023/05/09 03:11:55;;;;;;;26.80;12.13;;;14.90;99.90;;;;;;5059522;28;20060;-47
2023/05/09 03:14:21;;;;;;;25.43;11.73;;;14.90;99.90;;;;;;5059944;28;20049;-46
2023/05/09 03:16:47;;;;;;;31.83;12.55;;;14.90;99.90;;;;;;5060386;28;20283;-46
2023/05/09 03:19:13;;;;;;;30.65;13.85;;;14.90;99.90;;;;;;5060287;28;20049;-46
2023/05/09 03:21:38;;;;;;;28.58;13.75;;;14.90;99.90;;;;;;5060009;28;20429;-50
2023/05/09 03:24:06;;;;;;;29.80;12.73;;;14.90;99.90;;;;;;5060123;28;20044;-49
2023/05/09 03:26:31;;;;;;;29.65;12.70;;;14.90;99.90;;;;;;5059725;28;20286;-51
2023/05/09 03:28:57;;;;;;;29.42;11.57;;;14.90;99.90;;;;;;5059658;28;20044;-50
2023/05/09 03:31:23;;;;;;;30.15;12.18;;;14.90;99.90;;;;;;5042661;28;20095;-49
2023/05/09 03:33:49;;;;;;;28.70;12.37;;;14.90;99.90;;;;;;5060155;28;20041;-47
2023/05/09 03:36:16;;;;;;;26.38;12.50;;;14.90;99.90;;;;;;5059920;28;20276;-51
2023/05/09 03:38:42;;;;;;;26.65;11.18;;;14.90;99.90;;;;;;5059782;28;20055;-48
2023/05/09 03:41:08;;;;;;;24.90;13.00;;;14.90;99.90;;;;;;5059951;28;20033;-48
2023/05/09 03:43:33;;;;;;;23.65;11.10;;;14.90;99.90;;;;;;5059628;28;20049;-47
2023/05/09 03:45:59;;;;;;;32.37;14.73;;;14.90;99.90;;;;;;5059886;28;20044;-47
2023/05/09 03:48:24;;;;;;;31.58;13.18;;;14.90;99.90;;;;;;5059871;28;20275;-47
2023/05/09 03:50:50;;;;;;;24.20;11.40;;;14.90;99.90;;;;;;5059625;28;20480;-46
2023/05/09 03:53:16;;;;;;;26.00;11.30;;;14.90;99.90;;;;;;5058671;28;20287;-46
2023/05/09 03:55:41;;;;;;;26.07;12.07;;;14.90;99.90;;;;;;5059643;28;20755;-46
2023/05/09 03:58:07;;;;;;;24.88;12.23;;;14.80;99.90;;;;;;5059435;28;20488;-46
2023/05/09 04:00:33;;;;;;;29.10;13.35;;;14.80;99.90;;;;;;5060118;28;20044;-47
2023/05/09 04:02:59;;;;;;;30.40;13.77;;;14.80;99.90;;;;;;5059679;28;20439;-46
2023/05/09 04:05:25;;;;;;;32.80;13.07;;;14.80;99.90;;;;;;5059590;28;20059;-46
2023/05/09 04:07:51;;;;;;;29.92;12.60;;;14.80;99.90;;;;;;5059498;28;20108;-46
2023/05/09 04:10:17;;;;;;;30.52;14.20;;;14.80;99.90;;;;;;5058504;28;20057;-47
2023/05/09 04:12:43;;;;;;;28.88;13.38;;;14.80;99.90;;;;;;5056369;28;20049;-47
2023/05/09 04:15:09;;;;;;;32.92;13.90;;;14.80;99.90;;;;;;5056831;28;20053;-46
2023/05/09 04:17:35;;;;;;;29.58;12.15;;;14.70;99.90;;;;;;5056321;28;20405;-46
2023/05/09 04:20:02;;;;;;;28.30;13.57;;;14.70;99.90;;;;;;5056281;28;20048;-46
2023/05/09 04:22:28;;;;;;;29.13;13.07;;;14.70;99.90;;;;;;5056234;28;20060;-47
2023/05/09 04:24:53;;;;;;;33.60;14.45;;;14.70;99.90;;;;;;5056019;28;20049;-47
2023/05/09 04:27:19;;;;;;;29.90;13.18;;;14.70;99.90;;;;;;5055977;28;20094;-47
2023/05/09 04:29:45;;;;;;;28.98;13.55;;;14.70;99.90;;;;;;5055171;28;20045;-46
2023/05/09 04:32:11;;;;;;;32.67;14.40;;;14.70;99.90;;;;;;5056049;28;20048;-46
2023/05/09 04:34:36;;;;;;;33.47;15.07;;;14.70;99.90;;;;;;5055940;28;20414;-48
2023/05/09 04:37:02;;;;;;;30.80;14.25;;;14.70;99.90;;;;;;5055864;28;20082;-47
2023/05/09 04:39:29;;;;;;;30.20;13.43;;;14.70;99.90;;;;;;5055804;28;20049;-47
2023/05/09 04:41:54;;;;;;;27.67;12.63;;;14.70;99.90;;;;;;5055865;28;20287;-46
2023/05/09 04:44:21;;;;;;;28.17;12.63;;;14.70;99.90;;;;;;5055819;28;20045;-46
2023/05/09 04:46:46;;;;;;;;;;;14.70;99.90;;;;;;5055015;28;20055;-47
2023/05/09 04:49:12;;;;;;;27.20;13.02;;;14.80;99.90;;;;;;5055719;28;20287;-46
2023/05/09 04:51:38;;;;;;;23.10;11.13;;;14.80;99.90;;;;;;5055561;28;20064;-46
2023/05/09 04:54:03;;;;;;;23.33;12.17;;;14.80;99.90;;;;;;5055671;28;20370;-47
2023/05/09 04:56:29;;;;;;;25.73;11.38;;;14.80;99.90;;;;;;5055573;28;20128;-47
2023/05/09 04:58:55;;;;;;;24.08;11.82;;;14.80;99.90;;;;;;5055636;28;20562;-46
2023/05/09 05:01:20;;;;;;;21.60;11.47;;;14.80;99.90;;;;;;5055507;28;20106;-46
2023/05/09 05:03:46;;;;;;;24.00;11.80;;;14.90;99.90;;;;;;5054341;28;20044;-46
2023/05/09 05:06:12;;;;;;;20.15;10.63;;;14.90;99.90;;;;;;5055319;28;20124;-46
2023/05/09 05:08:37;;;;;;;23.07;11.00;;;14.90;99.90;;;;;;5055404;28;20072;-46
2023/05/09 05:11:03;;;;;;;20.40;11.50;;;14.90;99.90;;;;;;5055121;28;20373;-46
2023/05/09 05:13:29;;;;;;;20.45;10.90;;;14.90;99.90;;;;;;5055472;28;20443;-46
2023/05/09 05:15:55;;;;;;;21.27;10.57;;;15.00;99.90;;;;;;5054034;28;20482;-46
2023/05/09 05:18:21;;;;;;;20.95;11.30;;;15.00;99.90;;;;;;5054005;28;20056;-46
2023/05/09 05:20:46;;;;;;;16.75;9.20;;;15.00;99.90;;;;;;5055080;28;20049;-46
2023/05/09 05:23:12;;;;;;;17.48;9.60;;;15.10;99.90;;;;;;5054737;28;20041;-47
2023/05/09 05:25:38;;;;;;;17.65;8.48;;;15.00;99.90;;;;;;5054891;28;20045;-46
2023/05/09 05:28:04;;;;;;;15.27;8.77;;;15.00;99.90;;;;;;5055412;28;20045;-45
2023/05/09 05:30:29;;;;;;;16.50;8.77;;;15.00;99.90;;;;;;5054897;28;20045;-46
2023/05/09 05:32:55;;;;;;;17.00;8.88;;;15.10;99.90;;;;;;5054927;28;20483;-45
2023/05/09 05:35:22;;;;;;;15.13;8.73;;;15.00;99.90;;;;;;5054851;28;20134;-46
2023/05/09 05:37:48;;;;;;;16.55;9.32;;;15.10;99.90;;;;;;5054818;28;20315;-46
2023/05/09 05:40:13;;;;;;;14.95;8.70;;;15.10;99.90;;;;;;5054464;28;20049;-45
2023/05/09 05:42:39;;;;;;;17.30;8.68;;;15.00;99.90;;;;;;5053666;28;20103;-45
2023/05/09 05:45:05;;;;;;;14.32;7.95;;;15.10;99.90;;;;;;5054643;28;20049;-46
2023/05/09 05:47:32;;;;;;;16.05;8.90;;;15.10;99.90;;;;;;5054454;28;20053;-46
2023/05/09 05:50:02;;;;;;;16.27;8.95;;;15.10;99.90;;;;;;5054478;28;20507;-45
2023/05/09 05:52:28;;;;;;;15.55;8.35;;;15.20;99.90;;;;;;5054421;28;20128;-45
2023/05/09 05:54:54;;;;;;;16.60;9.05;;;15.20;99.90;;;;;;5054267;28;20576;-46
2023/05/09 05:57:20;;;;;;;16.60;10.02;;;15.20;99.90;;;;;;5054434;28;20118;-45
2023/05/09 05:59:47;;;;;;;20.05;9.93;;;15.20;99.90;;;;;;5054402;28;20098;-45
2023/05/09 06:02:13;;;;;;;18.52;9.93;;;15.30;99.90;;;;;;5054463;28;20045;-45
2023/05/09 06:04:38;;;;;;;18.35;10.18;;;15.30;99.90;;;;;;5054292;28;20076;-45
2023/05/09 06:07:04;;;;;;;17.60;10.05;;;15.20;99.90;;;;;;5054237;28;20091;-45
2023/05/09 06:09:30;;;;;;;22.02;9.82;;;15.30;99.90;;;;;;5054171;28;20484;-46
2023/05/09 06:11:56;;;;;;;20.40;9.73;;;15.30;99.90;;;;;;5052546;28;20052;-45
2023/05/09 06:14:21;;;;;;;17.98;9.90;;;15.30;99.90;;;;;;5054149;28;20287;-45
2023/05/09 06:16:47;;;;;;;16.25;8.40;;;15.30;99.90;;;;;;5054042;28;20041;-45
2023/05/09 06:19:13;;;;;;;17.17;9.68;;;15.30;99.90;;;;;;5053886;28;20045;-45
2023/05/09 06:21:38;;;;;;;18.30;10.00;;;15.30;99.90;;;;;;5054066;28;20106;-45
2023/05/09 06:24:04;;;;;;;17.08;10.15;;;15.30;99.90;;;;;;5053721;28;20060;-46
2023/05/09 06:26:30;;;;;;;18.13;11.05;;;15.30;99.90;;;;;;5053982;28;20090;-46
2023/05/09 06:28:56;;;;;;;18.67;11.10;;;15.40;99.90;;;;;;5053594;28;20040;-45
2023/05/09 06:31:21;;;;;;;18.42;9.98;;;15.40;99.90;;;;;;5053848;28;20043;-45
2023/05/09 06:33:47;;;;;;;22.70;11.07;;;15.40;99.90;;;;;;5052871;28;20512;-45
2023/05/09 06:36:13;;;;;;;24.02;10.80;;;15.40;99.90;;;;;;5053882;28;20056;-45
2023/05/09 06:38:38;;;;;;;20.42;10.70;;;15.40;99.90;;;;;;5053533;28;20405;-46
2023/05/09 06:41:04;;;;;;;18.88;10.38;;;15.40;99.90;;;;;;5053715;28;20129;-45
2023/05/09 06:43:30;;;;;;;18.33;9.35;;;15.40;99.90;;;;;;5053709;28;20076;-45
2023/05/09 06:45:55;;;;;;;19.05;9.75;;;15.40;99.90;;;;;;5053666;28;20094;-45
2023/05/09 06:48:22;;;;;;;17.53;10.00;;;15.40;99.90;;;;;;5053463;28;20053;-46
2023/05/09 06:50:49;;;;;;;18.35;10.13;;;15.40;99.90;;;;;;5053535;28;20388;-45
2023/05/09 06:53:14;;;;;;;19.70;10.00;;;15.50;99.90;;;;;;5053405;28;20049;-46
2023/05/09 06:55:41;;;;;;;17.95;9.98;;;15.50;99.90;;;;;;5053527;28;20051;-45
2023/05/09 06:58:07;;;;;;;23.20;11.10;;;15.50;99.90;;;;;;5053703;28;20056;-46
2023/05/09 07:00:33;;;;;;;20.25;11.50;;;15.50;99.90;;;;;;5053432;28;20045;-45
2023/05/09 07:02:58;;;;;;;23.35;12.80;;;15.50;99.90;;;;;;5053446;28;20606;-47
2023/05/09 07:05:24;;;;;;;22.90;11.30;;;15.50;99.90;;;;;;5053505;28;20085;-45
2023/05/09 07:07:50;;;;;;;20.52;11.13;;;15.60;99.90;;;;;;5053457;28;20068;-46
2023/05/09 07:10:16;;;;;;;22.98;11.93;;;15.60;99.90;;;;;;5053692;28;20065;-46
2023/05/09 07:12:42;;;;;;;28.33;12.18;;;15.60;99.90;;;;;;5053782;28;20041;-45
2023/05/09 07:15:08;;;;;;;24.63;11.90;;;15.60;99.90;;;;;;5053427;28;20080;-45
2023/05/09 07:17:33;;;;;;;;;;;15.60;99.90;;;;;;5053758;28;20084;-45
2023/05/09 07:20:00;;;;;;;29.02;12.80;;;15.60;99.90;;;;;;5053195;28;19928;-46
2023/05/09 07:22:26;;;;;;;24.92;13.38;;;15.60;99.90;;;;;;5052122;28;20056;-45
2023/05/09 07:24:52;;;;;;;23.08;12.45;;;15.60;99.90;;;;;;5053340;28;20041;-46
2023/05/09 07:27:17;;;;;;;27.23;12.80;;;15.60;99.90;;;;;;5053267;28;20049;-46
2023/05/09 07:29:43;;;;;;;27.00;14.00;;;15.60;99.90;;;;;;5052260;28;20292;-45
2023/05/09 07:32:09;;;;;;;26.98;12.93;;;15.60;99.90;;;;;;5053180;28;20041;-45
2023/05/09 07:34:35;;;;;;;26.33;13.05;;;15.60;99.90;;;;;;5052135;28;20084;-46
2023/05/09 07:37:00;;;;;;;28.73;13.32;;;15.60;99.90;;;;;;5052907;28;20041;-45
2023/05/09 07:39:26;;;;;;;25.13;13.27;;;15.60;99.90;;;;;;5053236;28;20041;-45
2023/05/09 07:41:52;;;;;;;25.67;12.73;;;15.60;99.90;;;;;;5053161;28;20044;-45
2023/05/09 07:44:17;;;;;;;25.60;14.02;;;15.60;99.90;;;;;;5053133;28;20052;-45
2023/05/09 07:46:43;;;;;;;26.17;13.13;;;15.60;99.90;;;;;;5056386;28;20041;-45
2023/05/09 07:49:09;;;;;;;27.55;13.68;;;15.70;99.90;;;;;;5057037;28;20127;-45
2023/05/09 07:51:34;;;;;;;29.80;14.27;;;15.70;99.90;;;;;;5056511;28;20040;-46
2023/05/09 07:54:00;;;;;;;26.90;13.88;;;15.70;99.90;;;;;;5056812;28;20049;-45
2023/05/09 07:56:26;;;;;;;28.27;14.38;;;15.70;99.90;;;;;;5057105;28;20056;-45
2023/05/09 07:58:51;;;;;;;24.30;12.95;;;15.70;99.90;;;;;;5056765;28;20102;-45
2023/05/09 08:01:17;;;;;;;27.95;14.00;;;15.80;99.90;;;;;;5055521;28;20037;-45
2023/05/09 08:03:42;;;;;;;30.83;13.95;;;15.80;99.90;;;;;;5056682;28;20053;-45
2023/05/09 08:06:08;;;;;;;27.25;14.23;;;15.80;99.90;;;;;;5056462;28;20053;-45
2023/05/09 08:08:34;;;;;;;34.42;15.85;;;15.90;99.90;;;;;;5056306;28;20040;-45
2023/05/09 08:11:00;;;;;;;29.88;15.32;;;15.90;99.90;;;;;;5056701;28;20061;-45
2023/05/09 08:13:25;;;;;;;29.67;14.95;;;15.90;99.90;;;;;;5056472;28;20053;-45
2023/05/09 08:15:51;;;;;;;29.47;14.43;;;15.90;99.90;;;;;;5056526;28;20049;-45
2023/05/09 08:18:17;;;;;;;32.97;15.55;;;15.90;99.90;;;;;;5056081;28;20279;-45
2023/05/09 08:20:42;;;;;;;30.30;15.43;;;15.90;99.90;;;;;;5056136;28;20045;-45
2023/05/09 08:23:08;;;;;;;32.10;15.43;;;15.90;99.90;;;;;;5055803;28;20049;-45
2023/05/09 08:25:34;;;;;;;32.90;15.35;;;16.00;99.90;;;;;;5056114;28;20106;-45
2023/05/09 08:28:00;;;;;;;34.00;15.07;;;15.90;99.90;;;;;;5056119;28;20052;-46
2023/05/09 08:30:28;;;;;;;30.00;15.05;;;16.00;99.90;;;;;;5056005;28;20451;-45
2023/05/09 08:32:54;;;;;;;36.55;16.05;;;16.00;99.90;;;;;;5055976;28;20049;-45
2023/05/09 08:35:20;;;;;;;37.35;17.08;;;16.00;99.90;;;;;;5055825;28;20064;-45
2023/05/09 08:37:46;;;;;;;35.10;16.50;;;16.00;99.90;;;;;;5055724;28;20049;-45
2023/05/09 08:40:12;;;;;;;;;;;16.00;99.90;;;;;;5056415;28;20094;-45
2023/05/09 08:42:39;;;;;;;34.90;16.27;;;16.10;99.90;;;;;;5055834;28;19924;-45
2023/05/09 08:45:15;;;;;;;33.85;16.60;;;16.10;99.90;;;;;;5055983;28;20053;-45
2023/05/09 08:47:41;;;;;;;29.98;15.60;;;16.10;99.90;;;;;;5055878;28;20103;-45
2023/05/09 08:50:07;;;;;;;37.65;18.15;;;16.10;99.90;;;;;;5055642;28;20439;-45
2023/05/09 08:52:34;;;;;;;32.00;15.32;;;16.10;99.90;;;;;;5055751;28;20515;-46
2023/05/09 08:55:00;;;;;;;;;;;16.10;99.90;;;;;;5056091;28;20041;-45
2023/05/09 08:57:26;;;;;;;35.17;16.15;;;16.20;99.90;;;;;;5054712;28;20075;-46
2023/05/09 08:59:53;;;;;;;30.33;14.95;;;16.20;99.90;;;;;;5055651;28;20041;-44
2023/05/09 09:02:20;;;;;;;34.90;15.45;;;16.30;99.90;;;;;;5055481;28;20504;-46
2023/05/09 09:04:46;;;;;;;36.58;15.73;;;16.30;99.90;;;;;;5054206;28;20056;-45
2023/05/09 09:07:13;;;;;;;35.03;15.80;;;16.40;99.90;;;;;;5055762;28;20041;-45
2023/05/09 09:09:45;;;;;;;35.03;15.80;;;16.40;99.90;;;;;;5055344;28;20485;-45
2023/05/09 09:12:12;;;;;;;30.70;16.20;;;16.40;99.90;;;;;;5055326;28;20076;-45
2023/05/09 09:14:44;;;;;;;29.23;14.15;;;16.40;99.90;;;;;;5055219;28;20045;-45
2023/05/09 09:17:14;;;;;;;36.10;15.23;;;16.50;99.90;;;;;;5054407;28;20086;-44
2023/05/09 09:19:41;;;;;;;32.38;16.52;;;16.60;99.90;;;;;;5055205;28;20480;-44
2023/05/09 09:22:10;;;;;;;33.50;16.23;;;16.60;99.90;;;;;;5055187;28;20083;-45
2023/05/09 09:24:36;;;;;;;30.80;15.45;;;16.60;99.90;;;;;;5053903;28;20048;-45
2023/05/09 09:27:05;;;;;;;30.77;14.88;;;16.70;99.90;;;;;;5055064;28;20056;-46
2023/05/09 09:29:32;;;;;;;35.55;15.38;;;16.70;99.90;;;;;;5055057;28;20480;-45
2023/05/09 09:32:01;;;;;;;33.65;15.90;;;16.80;99.90;;;;;;5054660;28;20378;-45
2023/05/09 09:34:27;;;;;;;32.53;14.75;;;16.90;99.90;;;;;;5054519;28;20087;-47
2023/05/09 09:36:53;;;;;;;32.28;15.63;;;16.90;99.90;;;;;;5054891;28;20132;-45
2023/05/09 09:39:20;;;;;;;34.38;15.50;;;16.90;99.90;;;;;;5054712;28;20475;-45
2023/05/09 09:41:46;;;;;;;28.92;12.90;;;16.90;99.90;;;;;;5054750;28;20044;-45
2023/05/09 09:44:17;;;;;;;36.60;15.88;;;17.00;99.90;;;;;;5054658;28;20076;-45
2023/05/09 09:46:51;;;;;;;31.25;15.23;;;16.90;99.90;;;;;;5054680;28;20056;-44
2023/05/09 09:49:25;;;;;;;28.05;13.95;;;17.00;99.90;;;;;;5054858;28;20441;-44
2023/05/09 09:51:53;;;;;;;28.95;13.82;;;17.00;99.90;;;;;;5054836;28;20103;-45
2023/05/09 09:54:20;;;;;;;35.17;16.27;;;17.10;99.90;;;;;;5053402;28;20045;-45
2023/05/09 09:56:48;;;;;;;33.15;15.45;;;17.10;99.90;;;;;;5054384;28;20047;-45
2023/05/09 09:59:18;;;;;;;28.70;12.57;;;17.20;99.90;;;;;;5054449;28;20071;-45
2023/05/09 10:02:05;;;;;;;28.80;13.73;;;17.20;99.90;;;;;;5054397;28;20041;-45
2023/05/09 10:04:42;;;;;;;26.80;11.80;;;17.20;99.90;;;;;;5054613;28;20057;-47
2023/05/09 10:07:09;;;;;;;28.92;13.35;;;17.30;99.90;;;;;;5054380;28;20500;-45
2023/05/09 10:09:39;;;;;;;26.58;13.00;;;17.20;99.90;;;;;;5054015;28;20056;-44
2023/05/09 10:12:06;;;;;;;23.20;11.43;;;17.30;99.90;;;;;;5053931;28;20132;-44
2023/05/09 10:14:35;;;;;;;23.48;11.95;;;17.30;99.90;;;;;;5054385;28;20087;-44
2023/05/09 10:17:03;;;;;;;22.88;11.52;;;17.30;99.90;;;;;;5054082;28;20041;-44
2023/05/09 10:19:30;;;;;;;24.42;13.07;;;17.30;99.90;;;;;;5054108;28;20045;-45
2023/05/09 10:22:01;;;;;;;27.25;12.93;;;17.30;99.90;;;;;;5053736;28;20495;-44
2023/05/09 10:24:38;;;;;;;23.13;12.50;;;17.30;99.90;;;;;;5054175;28;20148;-44
2023/05/09 10:27:09;;;;;;;24.27;11.43;;;17.30;99.90;;;;;;5054046;28;20052;-44
2023/05/09 10:29:37;;;;;;;23.75;11.85;;;17.40;99.90;;;;;;5053855;28;20488;-45
2023/05/09 10:32:26;;;;;;;24.25;12.25;;;17.40;99.90;;;;;;5053734;28;20080;-45
2023/05/09 10:34:57;;;;;;;22.90;11.80;;;17.40;99.90;;;;;;5054294;28;20122;-44
2023/05/09 10:37:23;;;;;;;19.60;10.43;;;17.30;99.90;;;;;;5053977;28;20047;-45
2023/05/09 10:39:52;;;;;;;21.92;11.65;;;17.40;99.90;;;;;;5053625;28;20488;-45
2023/05/09 10:42:19;;;;;;;23.35;11.38;;;17.40;99.90;;;;;;5053756;28;20064;-45
2023/05/09 10:44:45;;;;;;;23.70;11.77;;;17.40;99.90;;;;;;5053444;28;20552;-45
2023/05/09 10:47:12;;;;;;;23.52;10.68;;;17.50;99.90;;;;;;5053652;28;20132;-44
2023/05/09 10:49:37;;;;;;;;;;;17.60;99.90;;;;;;5054124;28;20045;-44
2023/05/09 10:52:03;;;;;;;23.23;11.88;;;17.70;99.90;;;;;;5053443;28;20419;-44
2023/05/09 10:54:32;;;;;;;23.13;10.88;;;17.70;99.90;;;;;;5053620;28;20047;-44
2023/05/09 10:56:59;;;;;;;22.73;11.82;;;17.80;99.90;;;;;;5053451;28;20056;-44
2023/05/09 10:59:42;;;;;;;18.75;10.93;;;17.80;99.90;;;;;;5053452;28;20056;-44
2023/05/09 11:02:12;;;;;;;17.38;9.90;;;17.90;99.90;;;;;;5053535;28;20041;-44
2023/05/09 11:04:39;;;;;;;20.45;10.40;;;17.90;99.90;;;;;;5053857;28;20080;-44
2023/05/09 11:07:20;;;;;;;;;;;18.00;99.90;;;;;;5054054;28;20115;-44
2023/05/09 11:10:08;;;;;;;19.02;10.55;;;18.00;99.90;;;;;;5053543;28;19921;-44
2023/05/09 11:12:51;;;;;;;22.23;11.20;;;18.00;99.90;;;;;;5053362;28;20052;-44
2023/05/09 11:15:17;;;;;;;18.50;10.43;;;18.00;99.90;;;;;;5052696;28;20049;-44
2023/05/09 11:17:43;;;;;;;;;;;17.90;99.90;;;;;;5053767;28;20053;-44
2023/05/09 11:20:09;;;;;;;19.98;10.18;;;17.90;99.90;;;;;;5053984;28;19927;-44
2023/05/09 11:22:43;;;;;;;20.48;10.35;;;17.80;99.90;;;;;;5057393;28;20055;-44
2023/05/09 11:25:13;;;;;;;19.38;10.18;;;17.90;99.90;;;;;;5057582;28;20063;-44
2023/05/09 11:27:50;;;;;;;20.63;10.75;;;17.80;99.90;;;;;;5057283;28;20567;-45
2023/05/09 11:30:19;;;;;;;17.63;8.93;;;17.90;99.90;;;;;;5057365;28;20407;-44
2023/05/09 11:32:54;;;;;;;16.90;8.75;;;17.80;99.90;;;;;;5056966;28;20133;-44
2023/05/09 11:35:21;;;;;;;19.65;9.07;;;17.70;99.90;;;;;;5057121;28;20049;-44
2023/05/09 11:37:53;;;;;;;18.55;9.60;;;17.70;99.90;;;;;;5057141;28;20047;-44
2023/05/09 11:40:21;;;;;;;17.17;8.65;;;17.70;99.90;;;;;;5057164;28;20051;-44
2023/05/09 11:42:54;;;;;;;18.42;9.63;;;17.70;99.90;;;;;;5057055;28;20044;-44
2023/05/09 11:45:25;;;;;;;16.50;7.97;;;17.70;99.90;;;;;;5056783;28;20099;-44
2023/05/09 11:47:52;;;;;;;16.98;9.30;;;17.70;99.90;;;;;;5056630;28;20045;-44
2023/05/09 11:50:19;;;;;;;17.45;9.50;;;17.80;99.90;;;;;;5056969;28;20049;-45
2023/05/09 11:52:46;;;;;;;18.80;9.60;;;17.80;99.90;;;;;;5056750;28;20102;-43
2023/05/09 11:55:15;;;;;;;16.40;8.50;;;17.90;99.90;;;;;;5055730;28;20040;-44
2023/05/09 11:57:46;;;;;;;19.73;9.55;;;18.00;99.90;;;;;;5055606;28;20056;-44
2023/05/09 12:00:18;;;;;;;18.77;9.55;;;18.00;99.90;;;;;;5056887;28;20056;-43
2023/05/09 12:02:45;;;;;;;16.58;8.57;;;18.00;99.90;;;;;;5057042;28;20045;-44
2023/05/09 12:05:13;;;;;;;18.30;9.60;;;18.00;99.90;;;;;;5056651;28;20076;-44
2023/05/09 12:07:40;;;;;;;16.63;9.38;;;18.00;99.90;;;;;;5056587;28;20396;-44
2023/05/09 12:10:10;;;;;;;16.63;8.98;;;18.00;99.90;;;;;;5056212;28;20045;-44
2023/05/09 12:12:40;;;;;;;17.30;8.50;;;18.00;99.90;;;;;;5056238;28;20049;-44
2023/05/09 12:15:07;;;;;;;20.95;10.38;;;18.00;99.90;;;;;;5056559;28;20051;-44
2023/05/09 12:17:34;;;;;;;16.42;8.75;;;18.10;99.90;;;;;;5055131;28;20148;-44
2023/05/09 12:20:01;;;;;;;17.35;8.57;;;18.10;99.90;;;;;;5055332;28;20053;-45
2023/05/09 12:22:29;;;;;;;15.95;7.75;;;18.10;99.90;;;;;;5056346;28;20052;-45
2023/05/09 12:24:55;;;;;;;15.93;9.55;;;18.20;99.90;;;;;;5056092;28;20051;-45
2023/05/09 12:27:21;;;;;;;16.58;9.23;;;18.20;99.90;;;;;;5056272;28;20041;-44
2023/05/09 12:29:47;;;;;;;;;;;18.20;99.90;;;;;;5056626;28;20049;-45
2023/05/09 12:32:17;;;;;;;17.50;8.57;;;18.30;99.90;;;;;;5054558;28;20019;-44